sensor_id;sensor_type;location;lat;lon;timestamp;P1;durP1;ratioP1;P2;durP2;ratioP2
83103;SDS011;72975;48.134;11.630;2023-11-18T00:02:29;13.27;;;7.47;;
83103;SDS011;72975;48.134;11.630;2023-11-18T00:05:00;13.35;;;7.28;;
83103;SDS011;72975;48.134;11.630;2023-11-18T00:07:27;12.00;;;7.63;;
83103;SDS011;72975;48.134;11.630;2023-11-18T00:09:55;12.73;;;8.15;;
83103;SDS011;72975;48.134;11.630;2023-11-18T00:12:22;13.45;;;7.88;;
83103;SDS011;72975;48.134;11.630;2023-11-18T00:14:50;13.15;;;7.18;;
83103;SDS011;72975;48.134;11.630;2023-11-18T00:17:17;13.60;;;8.05;;
83103;SDS011;72975;48.134;11.630;2023-11-18T00:19:46;10.73;;;7.35;;
83103;SDS011;72975;48.134;11.630;2023-11-18T00:22:13;11.05;;;7.18;;
83103;SDS011;72975;48.134;11.630;2023-11-18T00:24:40;11.48;;;8.05;;
83103;SDS011;72975;48.134;11.630;2023-11-18T00:27:07;14.32;;;8.07;;
83103;SDS011;72975;48.134;11.630;2023-11-18T00:29:34;11.45;;;6.97;;
83103;SDS011;72975;48.134;11.630;2023-11-18T00:32:01;12.30;;;6.65;;
83103;SDS011;72975;48.134;11.630;2023-11-18T00:34:30;9.77;;;6.20;;
83103;SDS011;72975;48.134;11.630;2023-11-18T00:36:57;12.20;;;7.65;;
83103;SDS011;72975;48.134;11.630;2023-11-18T00:39:24;10.88;;;6.72;;
83103;SDS011;72975;48.134;11.630;2023-11-18T00:41:51;9.73;;;6.40;;
83103;SDS011;72975;48.134;11.630;2023-11-18T00:44:18;10.00;;;6.18;;
83103;SDS011;72975;48.134;11.630;2023-11-18T00:46:45;10.07;;;6.25;;
83103;SDS011;72975;48.134;11.630;2023-11-18T00:49:13;8.70;;;5.15;;
83103;SDS011;72975;48.134;11.630;2023-11-18T00:51:40;7.15;;;4.35;;
83103;SDS011;72975;48.134;11.630;2023-11-18T00:54:10;7.03;;;4.70;;
83103;SDS011;72975;48.134;11.630;2023-11-18T00:56:38;7.15;;;4.53;;
83103;SDS011;72975;48.134;11.630;2023-11-18T00:59:06;8.30;;;5.22;;
83103;SDS011;72975;48.134;11.630;2023-11-18T01:01:33;7.22;;;4.55;;
83103;SDS011;72975;48.134;11.630;2023-11-18T01:04:01;7.30;;;5.28;;
83103;SDS011;72975;48.134;11.630;2023-11-18T01:06:29;7.88;;;5.05;;
83103;SDS011;72975;48.134;11.630;2023-11-18T01:08:56;6.97;;;5.28;;
83103;SDS011;72975;48.134;11.630;2023-11-18T01:11:23;8.20;;;5.10;;
83103;SDS011;72975;48.134;11.630;2023-11-18T01:13:50;7.78;;;5.07;;
83103;SDS011;72975;48.134;11.630;2023-11-18T01:16:17;8.13;;;4.90;;
83103;SDS011;72975;48.134;11.630;2023-11-18T01:18:46;6.15;;;4.03;;
83103;SDS011;72975;48.134;11.630;2023-11-18T01:21:13;6.22;;;4.25;;
83103;SDS011;72975;48.134;11.630;2023-11-18T01:23:40;5.60;;;3.95;;
83103;SDS011;72975;48.134;11.630;2023-11-18T01:26:08;6.38;;;4.65;;
83103;SDS011;72975;48.134;11.630;2023-11-18T01:28:36;6.82;;;4.22;;
83103;SDS011;72975;48.134;11.630;2023-11-18T01:31:05;6.55;;;3.92;;
83103;SDS011;72975;48.134;11.630;2023-11-18T01:33:39;6.07;;;3.90;;
83103;SDS011;72975;48.134;11.630;2023-11-18T01:36:07;6.18;;;4.00;;
83103;SDS011;72975;48.134;11.630;2023-11-18T01:38:35;5.90;;;3.72;;
83103;SDS011;72975;48.134;11.630;2023-11-18T01:41:04;5.32;;;3.80;;
83103;SDS011;72975;48.134;11.630;2023-11-18T01:43:33;5.57;;;3.58;;
83103;SDS011;72975;48.134;11.630;2023-11-18T01:46:04;5.57;;;3.38;;
83103;SDS011;72975;48.134;11.630;2023-11-18T01:48:37;6.03;;;4.35;;
83103;SDS011;72975;48.134;11.630;2023-11-18T01:51:06;5.72;;;3.78;;
83103;SDS011;72975;48.134;11.630;2023-11-18T01:53:36;6.38;;;4.03;;
83103;SDS011;72975;48.134;11.630;2023-11-18T01:56:07;6.60;;;4.25;;
83103;SDS011;72975;48.134;11.630;2023-11-18T01:58:35;5.80;;;3.67;;
83103;SDS011;72975;48.134;11.630;2023-11-18T02:01:03;5.90;;;3.92;;
83103;SDS011;72975;48.134;11.630;2023-11-18T02:03:35;5.70;;;3.85;;
83103;SDS011;72975;48.134;11.630;2023-11-18T02:06:02;5.75;;;3.45;;
83103;SDS011;72975;48.134;11.630;2023-11-18T02:08:31;5.90;;;4.05;;
83103;SDS011;72975;48.134;11.630;2023-11-18T02:11:03;5.15;;;3.08;;
83103;SDS011;72975;48.134;11.630;2023-11-18T02:13:42;5.90;;;3.55;;
83103;SDS011;72975;48.134;11.630;2023-11-18T02:16:14;5.95;;;3.05;;
83103;SDS011;72975;48.134;11.630;2023-11-18T02:18:43;6.75;;;3.63;;
83103;SDS011;72975;48.134;11.630;2023-11-18T02:21:11;6.85;;;4.47;;
83103;SDS011;72975;48.134;11.630;2023-11-18T02:23:40;5.82;;;4.05;;
83103;SDS011;72975;48.134;11.630;2023-11-18T02:26:09;5.35;;;3.63;;
83103;SDS011;72975;48.134;11.630;2023-11-18T02:28:36;6.25;;;4.53;;
83103;SDS011;72975;48.134;11.630;2023-11-18T02:31:18;6.57;;;4.53;;
83103;SDS011;72975;48.134;11.630;2023-11-18T02:34:00;6.60;;;4.78;;
83103;SDS011;72975;48.134;11.630;2023-11-18T02:36:46;6.82;;;4.50;;
83103;SDS011;72975;48.134;11.630;2023-11-18T02:39:18;6.03;;;4.07;;
83103;SDS011;72975;48.134;11.630;2023-11-18T02:42:12;7.07;;;4.40;;
83103;SDS011;72975;48.134;11.630;2023-11-18T02:44:40;6.78;;;4.53;;
83103;SDS011;72975;48.134;11.630;2023-11-18T02:47:07;8.07;;;4.93;;
83103;SDS011;72975;48.134;11.630;2023-11-18T02:49:37;6.82;;;4.63;;
83103;SDS011;72975;48.134;11.630;2023-11-18T02:52:05;6.40;;;5.07;;
83103;SDS011;72975;48.134;11.630;2023-11-18T02:54:32;6.50;;;4.55;;
83103;SDS011;72975;48.134;11.630;2023-11-18T02:56:59;6.28;;;4.70;;
83103;SDS011;72975;48.134;11.630;2023-11-18T02:59:26;6.15;;;4.55;;
83103;SDS011;72975;48.134;11.630;2023-11-18T03:01:56;6.13;;;4.30;;
83103;SDS011;72975;48.134;11.630;2023-11-18T03:04:23;7.28;;;4.88;;
83103;SDS011;72975;48.134;11.630;2023-11-18T03:06:50;6.45;;;4.22;;
83103;SDS011;72975;48.134;11.630;2023-11-18T03:09:17;7.10;;;4.38;;
83103;SDS011;72975;48.134;11.630;2023-11-18T03:11:45;6.43;;;4.95;;
83103;SDS011;72975;48.134;11.630;2023-11-18T03:14:12;6.80;;;4.38;;
83103;SDS011;72975;48.134;11.630;2023-11-18T03:16:39;6.55;;;4.55;;
83103;SDS011;72975;48.134;11.630;2023-11-18T03:19:06;6.30;;;4.13;;
83103;SDS011;72975;48.134;11.630;2023-11-18T03:21:35;7.10;;;4.90;;
83103;SDS011;72975;48.134;11.630;2023-11-18T03:24:02;7.03;;;4.55;;
83103;SDS011;72975;48.134;11.630;2023-11-18T03:26:30;6.75;;;4.38;;
83103;SDS011;72975;48.134;11.630;2023-11-18T03:28:58;6.15;;;3.95;;
83103;SDS011;72975;48.134;11.630;2023-11-18T03:31:25;7.45;;;4.53;;
83103;SDS011;72975;48.134;11.630;2023-11-18T03:33:52;5.82;;;4.30;;
83103;SDS011;72975;48.134;11.630;2023-11-18T03:36:19;6.72;;;4.65;;
83103;SDS011;72975;48.134;11.630;2023-11-18T03:38:47;6.72;;;4.55;;
83103;SDS011;72975;48.134;11.630;2023-11-18T03:41:16;5.20;;;4.18;;
83103;SDS011;72975;48.134;11.630;2023-11-18T03:43:43;6.75;;;4.97;;
83103;SDS011;72975;48.134;11.630;2023-11-18T03:46:11;5.90;;;4.03;;
83103;SDS011;72975;48.134;11.630;2023-11-18T03:48:38;6.43;;;4.45;;
83103;SDS011;72975;48.134;11.630;2023-11-18T03:51:05;7.30;;;4.88;;
83103;SDS011;72975;48.134;11.630;2023-11-18T03:53:32;7.07;;;4.55;;
83103;SDS011;72975;48.134;11.630;2023-11-18T03:56:00;6.50;;;4.32;;
83103;SDS011;72975;48.134;11.630;2023-11-18T03:58:28;5.80;;;4.35;;
83103;SDS011;72975;48.134;11.630;2023-11-18T04:00:55;7.18;;;4.95;;
83103;SDS011;72975;48.134;11.630;2023-11-18T04:03:23;6.88;;;4.57;;
83103;SDS011;72975;48.134;11.630;2023-11-18T04:05:50;6.50;;;4.43;;
83103;SDS011;72975;48.134;11.630;2023-11-18T04:08:17;6.32;;;4.22;;
83103;SDS011;72975;48.134;11.630;2023-11-18T04:10:44;7.55;;;4.85;;
83103;SDS011;72975;48.134;11.630;2023-11-18T04:13:12;7.75;;;4.68;;
83103;SDS011;72975;48.134;11.630;2023-11-18T04:15:39;7.80;;;4.65;;
83103;SDS011;72975;48.134;11.630;2023-11-18T04:18:06;8.57;;;5.22;;
83103;SDS011;72975;48.134;11.630;2023-11-18T04:20:33;7.18;;;4.75;;
83103;SDS011;72975;48.134;11.630;2023-11-18T04:23:00;9.95;;;5.40;;
83103;SDS011;72975;48.134;11.630;2023-11-18T04:25:27;8.23;;;4.28;;
83103;SDS011;72975;48.134;11.630;2023-11-18T04:27:54;8.32;;;4.80;;
83103;SDS011;72975;48.134;11.630;2023-11-18T04:30:21;10.02;;;5.32;;
83103;SDS011;72975;48.134;11.630;2023-11-18T04:32:48;7.63;;;5.13;;
83103;SDS011;72975;48.134;11.630;2023-11-18T04:35:15;8.57;;;5.25;;
83103;SDS011;72975;48.134;11.630;2023-11-18T04:37:43;7.63;;;4.88;;
83103;SDS011;72975;48.134;11.630;2023-11-18T04:40:12;8.90;;;5.28;;
83103;SDS011;72975;48.134;11.630;2023-11-18T04:42:40;7.90;;;4.95;;
83103;SDS011;72975;48.134;11.630;2023-11-18T04:45:07;9.52;;;5.70;;
83103;SDS011;72975;48.134;11.630;2023-11-18T04:47:36;6.95;;;4.63;;
83103;SDS011;72975;48.134;11.630;2023-11-18T04:50:05;8.95;;;5.50;;
83103;SDS011;72975;48.134;11.630;2023-11-18T04:52:34;8.23;;;5.30;;
83103;SDS011;72975;48.134;11.630;2023-11-18T04:55:03;7.68;;;5.28;;
83103;SDS011;72975;48.134;11.630;2023-11-18T04:57:32;7.97;;;5.70;;
83103;SDS011;72975;48.134;11.630;2023-11-18T05:00:01;7.65;;;4.78;;
83103;SDS011;72975;48.134;11.630;2023-11-18T05:02:37;7.15;;;4.47;;
83103;SDS011;72975;48.134;11.630;2023-11-18T05:05:05;7.88;;;5.32;;
83103;SDS011;72975;48.134;11.630;2023-11-18T05:07:33;7.82;;;5.55;;
83103;SDS011;72975;48.134;11.630;2023-11-18T05:10:01;8.07;;;5.07;;
83103;SDS011;72975;48.134;11.630;2023-11-18T05:12:29;8.90;;;5.88;;
83103;SDS011;72975;48.134;11.630;2023-11-18T05:14:56;9.38;;;5.88;;
83103;SDS011;72975;48.134;11.630;2023-11-18T05:17:23;9.35;;;5.75;;
83103;SDS011;72975;48.134;11.630;2023-11-18T05:19:50;9.23;;;5.07;;
83103;SDS011;72975;48.134;11.630;2023-11-18T05:22:17;7.70;;;5.38;;
83103;SDS011;72975;48.134;11.630;2023-11-18T05:24:44;9.30;;;5.63;;
83103;SDS011;72975;48.134;11.630;2023-11-18T05:27:11;8.40;;;4.80;;
83103;SDS011;72975;48.134;11.630;2023-11-18T05:29:38;8.55;;;5.47;;
83103;SDS011;72975;48.134;11.630;2023-11-18T05:32:07;8.90;;;5.10;;
83103;SDS011;72975;48.134;11.630;2023-11-18T05:34:34;7.57;;;4.35;;
83103;SDS011;72975;48.134;11.630;2023-11-18T05:37:02;7.53;;;4.97;;
83103;SDS011;72975;48.134;11.630;2023-11-18T05:39:29;8.00;;;4.82;;
83103;SDS011;72975;48.134;11.630;2023-11-18T05:41:57;9.63;;;6.00;;
83103;SDS011;72975;48.134;11.630;2023-11-18T05:44:24;8.50;;;5.40;;
83103;SDS011;72975;48.134;11.630;2023-11-18T05:46:57;6.80;;;4.40;;
83103;SDS011;72975;48.134;11.630;2023-11-18T05:49:24;11.32;;;5.93;;
83103;SDS011;72975;48.134;11.630;2023-11-18T05:51:51;8.50;;;5.47;;
83103;SDS011;72975;48.134;11.630;2023-11-18T05:54:18;9.93;;;5.70;;
83103;SDS011;72975;48.134;11.630;2023-11-18T05:56:45;8.10;;;5.80;;
83103;SDS011;72975;48.134;11.630;2023-11-18T05:59:13;9.23;;;5.20;;
83103;SDS011;72975;48.134;11.630;2023-11-18T06:01:40;8.02;;;5.45;;
83103;SDS011;72975;48.134;11.630;2023-11-18T06:04:08;8.38;;;4.85;;
83103;SDS011;72975;48.134;11.630;2023-11-18T06:06:36;7.78;;;4.50;;
83103;SDS011;72975;48.134;11.630;2023-11-18T06:09:03;8.23;;;5.32;;
83103;SDS011;72975;48.134;11.630;2023-11-18T06:11:41;9.13;;;4.97;;
83103;SDS011;72975;48.134;11.630;2023-11-18T06:14:11;8.75;;;5.40;;
83103;SDS011;72975;48.134;11.630;2023-11-18T06:16:38;6.68;;;3.28;;
83103;SDS011;72975;48.134;11.630;2023-11-18T06:19:08;8.27;;;5.30;;
83103;SDS011;72975;48.134;11.630;2023-11-18T06:21:36;8.02;;;4.45;;
83103;SDS011;72975;48.134;11.630;2023-11-18T06:24:03;8.13;;;4.53;;
83103;SDS011;72975;48.134;11.630;2023-11-18T06:26:32;8.90;;;5.03;;
83103;SDS011;72975;48.134;11.630;2023-11-18T06:29:02;6.90;;;4.82;;
83103;SDS011;72975;48.134;11.630;2023-11-18T06:31:32;8.85;;;5.60;;
83103;SDS011;72975;48.134;11.630;2023-11-18T06:34:00;7.60;;;4.20;;
83103;SDS011;72975;48.134;11.630;2023-11-18T06:36:29;7.75;;;3.88;;
83103;SDS011;72975;48.134;11.630;2023-11-18T06:38:57;8.48;;;4.60;;
83103;SDS011;72975;48.134;11.630;2023-11-18T06:41:25;9.15;;;5.53;;
83103;SDS011;72975;48.134;11.630;2023-11-18T06:44:00;8.77;;;4.93;;
83103;SDS011;72975;48.134;11.630;2023-11-18T06:46:35;9.73;;;4.82;;
83103;SDS011;72975;48.134;11.630;2023-11-18T06:49:06;7.70;;;5.28;;
83103;SDS011;72975;48.134;11.630;2023-11-18T06:51:34;9.23;;;5.05;;
83103;SDS011;72975;48.134;11.630;2023-11-18T06:54:03;7.25;;;4.65;;
83103;SDS011;72975;48.134;11.630;2023-11-18T06:56:36;6.75;;;4.30;;
83103;SDS011;72975;48.134;11.630;2023-11-18T06:59:05;8.93;;;5.07;;
83103;SDS011;72975;48.134;11.630;2023-11-18T07:01:39;6.97;;;4.60;;
83103;SDS011;72975;48.134;11.630;2023-11-18T07:04:09;8.43;;;4.78;;
83103;SDS011;72975;48.134;11.630;2023-11-18T07:06:36;8.73;;;5.32;;
83103;SDS011;72975;48.134;11.630;2023-11-18T07:09:05;6.82;;;4.28;;
83103;SDS011;72975;48.134;11.630;2023-11-18T07:11:39;6.05;;;4.47;;
83103;SDS011;72975;48.134;11.630;2023-11-18T07:14:07;9.38;;;5.05;;
83103;SDS011;72975;48.134;11.630;2023-11-18T07:16:38;6.85;;;4.55;;
83103;SDS011;72975;48.134;11.630;2023-11-18T07:19:06;10.13;;;5.80;;
83103;SDS011;72975;48.134;11.630;2023-11-18T07:21:36;8.30;;;5.18;;
83103;SDS011;72975;48.134;11.630;2023-11-18T07:24:03;8.35;;;4.63;;
83103;SDS011;72975;48.134;11.630;2023-11-18T07:26:31;7.85;;;5.07;;
83103;SDS011;72975;48.134;11.630;2023-11-18T07:28:58;8.07;;;5.25;;
83103;SDS011;72975;48.134;11.630;2023-11-18T07:31:24;8.35;;;5.18;;
83103;SDS011;72975;48.134;11.630;2023-11-18T07:33:51;8.00;;;4.65;;
83103;SDS011;72975;48.134;11.630;2023-11-18T07:36:19;10.98;;;5.50;;
83103;SDS011;72975;48.134;11.630;2023-11-18T07:38:49;7.43;;;4.50;;
83103;SDS011;72975;48.134;11.630;2023-11-18T07:41:19;7.85;;;5.40;;
83103;SDS011;72975;48.134;11.630;2023-11-18T07:43:58;12.63;;;5.55;;
83103;SDS011;72975;48.134;11.630;2023-11-18T07:46:25;7.95;;;5.13;;
83103;SDS011;72975;48.134;11.630;2023-11-18T07:48:54;6.90;;;4.75;;
83103;SDS011;72975;48.134;11.630;2023-11-18T07:51:23;8.32;;;5.18;;
83103;SDS011;72975;48.134;11.630;2023-11-18T07:53:51;8.68;;;4.70;;
83103;SDS011;72975;48.134;11.630;2023-11-18T07:56:19;7.03;;;4.90;;
83103;SDS011;72975;48.134;11.630;2023-11-18T07:58:48;7.28;;;4.63;;
83103;SDS011;72975;48.134;11.630;2023-11-18T08:01:17;7.05;;;4.07;;
83103;SDS011;72975;48.134;11.630;2023-11-18T08:03:44;9.18;;;5.15;;
83103;SDS011;72975;48.134;11.630;2023-11-18T08:06:11;7.28;;;4.22;;
83103;SDS011;72975;48.134;11.630;2023-11-18T08:08:39;7.22;;;4.68;;
83103;SDS011;72975;48.134;11.630;2023-11-18T08:11:11;6.45;;;4.55;;
83103;SDS011;72975;48.134;11.630;2023-11-18T08:13:40;7.60;;;4.82;;
83103;SDS011;72975;48.134;11.630;2023-11-18T08:16:07;8.88;;;4.40;;
83103;SDS011;72975;48.134;11.630;2023-11-18T08:18:35;6.88;;;4.75;;
83103;SDS011;72975;48.134;11.630;2023-11-18T08:21:03;6.47;;;4.32;;
83103;SDS011;72975;48.134;11.630;2023-11-18T08:23:33;7.20;;;4.47;;
83103;SDS011;72975;48.134;11.630;2023-11-18T08:26:00;6.80;;;4.07;;
83103;SDS011;72975;48.134;11.630;2023-11-18T08:28:28;6.45;;;4.63;;
83103;SDS011;72975;48.134;11.630;2023-11-18T08:30:57;7.63;;;4.32;;
83103;SDS011;72975;48.134;11.630;2023-11-18T08:33:24;7.75;;;4.50;;
83103;SDS011;72975;48.134;11.630;2023-11-18T08:35:52;6.70;;;4.18;;
83103;SDS011;72975;48.134;11.630;2023-11-18T08:38:19;7.18;;;4.82;;
83103;SDS011;72975;48.134;11.630;2023-11-18T08:40:46;8.00;;;4.25;;
83103;SDS011;72975;48.134;11.630;2023-11-18T08:43:15;9.60;;;5.45;;
83103;SDS011;72975;48.134;11.630;2023-11-18T08:45:43;6.72;;;4.10;;
83103;SDS011;72975;48.134;11.630;2023-11-18T08:48:11;8.10;;;4.93;;
83103;SDS011;72975;48.134;11.630;2023-11-18T08:50:39;6.50;;;4.00;;
83103;SDS011;72975;48.134;11.630;2023-11-18T08:53:06;7.15;;;4.22;;
83103;SDS011;72975;48.134;11.630;2023-11-18T08:55:37;7.13;;;4.32;;
83103;SDS011;72975;48.134;11.630;2023-11-18T08:58:30;5.78;;;3.83;;
83103;SDS011;72975;48.134;11.630;2023-11-18T09:01:00;6.32;;;4.30;;
83103;SDS011;72975;48.134;11.630;2023-11-18T09:03:53;7.13;;;4.35;;
83103;SDS011;72975;48.134;11.630;2023-11-18T09:06:20;7.80;;;4.22;;
83103;SDS011;72975;48.134;11.630;2023-11-18T09:11:23;6.20;;;4.15;;
83103;SDS011;72975;48.134;11.630;2023-11-18T09:13:55;6.07;;;4.15;;
83103;SDS011;72975;48.134;11.630;2023-11-18T09:16:26;6.35;;;3.30;;
83103;SDS011;72975;48.134;11.630;2023-11-18T09:18:57;8.23;;;4.53;;
83103;SDS011;72975;48.134;11.630;2023-11-18T09:21:29;6.75;;;4.00;;
83103;SDS011;72975;48.134;11.630;2023-11-18T09:26:34;5.78;;;3.85;;
83103;SDS011;72975;48.134;11.630;2023-11-18T09:29:01;6.05;;;4.13;;
83103;SDS011;72975;48.134;11.630;2023-11-18T09:31:29;5.82;;;4.00;;
83103;SDS011;72975;48.134;11.630;2023-11-18T09:33:58;5.75;;;4.03;;
83103;SDS011;72975;48.134;11.630;2023-11-18T09:36:25;7.20;;;4.05;;
83103;SDS011;72975;48.134;11.630;2023-11-18T09:38:54;5.78;;;3.97;;
83103;SDS011;72975;48.134;11.630;2023-11-18T09:41:22;5.57;;;4.40;;
83103;SDS011;72975;48.134;11.630;2023-11-18T09:43:53;4.65;;;3.53;;
83103;SDS011;72975;48.134;11.630;2023-11-18T09:46:23;4.70;;;3.60;;
83103;SDS011;72975;48.134;11.630;2023-11-18T09:52:05;5.38;;;3.75;;
83103;SDS011;72975;48.134;11.630;2023-11-18T09:57:16;5.80;;;5.20;;
83103;SDS011;72975;48.134;11.630;2023-11-18T10:02:47;6.22;;;3.10;;
83103;SDS011;72975;48.134;11.630;2023-11-18T10:05:19;5.03;;;4.38;;
83103;SDS011;72975;48.134;11.630;2023-11-18T10:07:47;4.60;;;4.10;;
83103;SDS011;72975;48.134;11.630;2023-11-18T10:10:16;4.20;;;3.00;;
83103;SDS011;72975;48.134;11.630;2023-11-18T10:12:47;4.00;;;2.25;;
83103;SDS011;72975;48.134;11.630;2023-11-18T10:15:30;5.18;;;2.55;;
83103;SDS011;72975;48.134;11.630;2023-11-18T10:17:58;3.85;;;2.70;;
83103;SDS011;72975;48.134;11.630;2023-11-18T10:37:03;4.18;;;2.72;;
83103;SDS011;72975;48.134;11.630;2023-11-18T10:39:47;4.45;;;2.65;;
83103;SDS011;72975;48.134;11.630;2023-11-18T10:43:06;6.38;;;4.50;;
83103;SDS011;72975;48.134;11.630;2023-11-18T10:45:37;4.70;;;3.05;;
83103;SDS011;72975;48.134;11.630;2023-11-18T10:48:11;3.83;;;2.50;;
83103;SDS011;72975;48.134;11.630;2023-11-18T10:50:42;4.18;;;2.72;;
83103;SDS011;72975;48.134;11.630;2023-11-18T10:55:42;4.10;;;2.85;;
83103;SDS011;72975;48.134;11.630;2023-11-18T10:58:10;3.35;;;2.13;;
83103;SDS011;72975;48.134;11.630;2023-11-18T11:00:52;3.20;;;1.88;;
83103;SDS011;72975;48.134;11.630;2023-11-18T11:03:22;4.05;;;1.63;;
83103;SDS011;72975;48.134;11.630;2023-11-18T11:05:52;3.20;;;2.33;;
83103;SDS011;72975;48.134;11.630;2023-11-18T11:08:20;3.70;;;2.42;;
83103;SDS011;72975;48.134;11.630;2023-11-18T11:11:01;4.72;;;2.60;;
83103;SDS011;72975;48.134;11.630;2023-11-18T11:13:34;8.55;;;2.50;;
83103;SDS011;72975;48.134;11.630;2023-11-18T11:16:04;3.85;;;2.33;;
83103;SDS011;72975;48.134;11.630;2023-11-18T11:18:36;4.45;;;1.88;;
83103;SDS011;72975;48.134;11.630;2023-11-18T11:21:15;2.97;;;1.98;;
83103;SDS011;72975;48.134;11.630;2023-11-18T11:24:00;4.05;;;2.50;;
83103;SDS011;72975;48.134;11.630;2023-11-18T11:27:07;4.10;;;2.55;;
83103;SDS011;72975;48.134;11.630;2023-11-18T11:33:13;2.95;;;2.30;;
83103;SDS011;72975;48.134;11.630;2023-11-18T11:35:54;4.45;;;2.38;;
83103;SDS011;72975;48.134;11.630;2023-11-18T11:38:26;3.40;;;1.98;;
83103;SDS011;72975;48.134;11.630;2023-11-18T11:40:55;3.20;;;1.75;;
83103;SDS011;72975;48.134;11.630;2023-11-18T11:43:26;4.22;;;2.72;;
83103;SDS011;72975;48.134;11.630;2023-11-18T11:45:55;3.08;;;1.85;;
83103;SDS011;72975;48.134;11.630;2023-11-18T11:48:22;5.68;;;2.20;;
83103;SDS011;72975;48.134;11.630;2023-11-18T11:53:47;3.85;;;1.95;;
83103;SDS011;72975;48.134;11.630;2023-11-18T11:56:37;4.75;;;1.73;;
83103;SDS011;72975;48.134;11.630;2023-11-18T11:59:07;2.97;;;1.90;;
83103;SDS011;72975;48.134;11.630;2023-11-18T12:01:37;5.03;;;2.30;;
83103;SDS011;72975;48.134;11.630;2023-11-18T12:04:16;3.63;;;2.13;;
83103;SDS011;72975;48.134;11.630;2023-11-18T12:06:57;2.53;;;1.48;;
83103;SDS011;72975;48.134;11.630;2023-11-18T12:12:24;4.35;;;2.35;;
83103;SDS011;72975;48.134;11.630;2023-11-18T12:14:54;3.35;;;2.63;;
83103;SDS011;72975;48.134;11.630;2023-11-18T12:20:39;3.47;;;1.88;;
83103;SDS011;72975;48.134;11.630;2023-11-18T12:23:14;2.90;;;1.90;;
83103;SDS011;72975;48.134;11.630;2023-11-18T12:25:42;4.60;;;2.63;;
83103;SDS011;72975;48.134;11.630;2023-11-18T12:28:25;3.85;;;2.40;;
83103;SDS011;72975;48.134;11.630;2023-11-18T12:31:04;3.65;;;2.60;;
83103;SDS011;72975;48.134;11.630;2023-11-18T12:42:43;3.50;;;2.10;;
83103;SDS011;72975;48.134;11.630;2023-11-18T12:45:54;3.08;;;1.90;;
83103;SDS011;72975;48.134;11.630;2023-11-18T12:48:56;3.35;;;2.00;;
83103;SDS011;72975;48.134;11.630;2023-11-18T12:51:32;7.35;;;3.08;;
83103;SDS011;72975;48.134;11.630;2023-11-18T12:54:02;4.28;;;2.40;;
83103;SDS011;72975;48.134;11.630;2023-11-18T12:56:33;3.28;;;2.42;;
83103;SDS011;72975;48.134;11.630;2023-11-18T12:59:00;4.80;;;2.60;;
83103;SDS011;72975;48.134;11.630;2023-11-18T13:01:35;4.55;;;2.67;;
83103;SDS011;72975;48.134;11.630;2023-11-18T13:04:08;3.38;;;2.58;;
83103;SDS011;72975;48.134;11.630;2023-11-18T13:06:38;4.53;;;2.40;;
83103;SDS011;72975;48.134;11.630;2023-11-18T13:09:14;4.78;;;3.25;;
83103;SDS011;72975;48.134;11.630;2023-11-18T13:11:54;3.25;;;2.45;;
83103;SDS011;72975;48.134;11.630;2023-11-18T13:16:54;3.63;;;2.58;;
83103;SDS011;72975;48.134;11.630;2023-11-18T13:19:28;4.22;;;2.97;;
83103;SDS011;72975;48.134;11.630;2023-11-18T13:21:59;4.10;;;2.70;;
83103;SDS011;72975;48.134;11.630;2023-11-18T13:24:39;3.45;;;2.20;;
83103;SDS011;72975;48.134;11.630;2023-11-18T13:27:12;4.00;;;2.42;;
83103;SDS011;72975;48.134;11.630;2023-11-18T13:29:46;4.38;;;2.70;;
83103;SDS011;72975;48.134;11.630;2023-11-18T13:32:19;4.38;;;1.95;;
83103;SDS011;72975;48.134;11.630;2023-11-18T13:34:52;4.93;;;2.55;;
83103;SDS011;72975;48.134;11.630;2023-11-18T13:37:19;4.22;;;2.38;;
83103;SDS011;72975;48.134;11.630;2023-11-18T13:39:55;4.32;;;3.00;;
83103;SDS011;72975;48.134;11.630;2023-11-18T13:42:26;4.45;;;2.50;;
83103;SDS011;72975;48.134;11.630;2023-11-18T13:44:59;4.55;;;2.53;;
83103;SDS011;72975;48.134;11.630;2023-11-18T13:47:34;4.32;;;2.22;;
83103;SDS011;72975;48.134;11.630;2023-11-18T13:50:09;3.85;;;1.73;;
83103;SDS011;72975;48.134;11.630;2023-11-18T13:52:37;3.28;;;2.08;;
83103;SDS011;72975;48.134;11.630;2023-11-18T13:55:05;4.63;;;2.90;;
83103;SDS011;72975;48.134;11.630;2023-11-18T13:57:33;3.72;;;2.30;;
83103;SDS011;72975;48.134;11.630;2023-11-18T14:00:01;5.40;;;2.65;;
83103;SDS011;72975;48.134;11.630;2023-11-18T14:02:34;4.68;;;2.28;;
83103;SDS011;72975;48.134;11.630;2023-11-18T14:05:03;4.55;;;2.28;;
83103;SDS011;72975;48.134;11.630;2023-11-18T14:07:37;4.43;;;2.85;;
83103;SDS011;72975;48.134;11.630;2023-11-18T14:10:05;3.90;;;1.95;;
83103;SDS011;72975;48.134;11.630;2023-11-18T14:12:34;4.07;;;2.22;;
83103;SDS011;72975;48.134;11.630;2023-11-18T14:15:01;4.10;;;2.53;;
83103;SDS011;72975;48.134;11.630;2023-11-18T14:17:29;3.60;;;2.10;;
83103;SDS011;72975;48.134;11.630;2023-11-18T14:19:57;3.55;;;1.48;;
83103;SDS011;72975;48.134;11.630;2023-11-18T14:22:24;4.15;;;2.55;;
83103;SDS011;72975;48.134;11.630;2023-11-18T14:24:51;4.47;;;2.67;;
83103;SDS011;72975;48.134;11.630;2023-11-18T14:27:20;3.38;;;2.10;;
83103;SDS011;72975;48.134;11.630;2023-11-18T14:29:47;3.47;;;2.05;;
83103;SDS011;72975;48.134;11.630;2023-11-18T14:32:13;3.55;;;2.10;;
83103;SDS011;72975;48.134;11.630;2023-11-18T14:34:41;4.18;;;1.92;;
83103;SDS011;72975;48.134;11.630;2023-11-18T14:37:08;3.00;;;1.90;;
83103;SDS011;72975;48.134;11.630;2023-11-18T14:39:35;3.67;;;1.70;;
83103;SDS011;72975;48.134;11.630;2023-11-18T14:42:03;3.92;;;1.80;;
83103;SDS011;72975;48.134;11.630;2023-11-18T14:44:30;4.00;;;2.10;;
83103;SDS011;72975;48.134;11.630;2023-11-18T14:46:57;2.60;;;1.60;;
83103;SDS011;72975;48.134;11.630;2023-11-18T14:49:26;4.28;;;2.35;;
83103;SDS011;72975;48.134;11.630;2023-11-18T14:51:53;4.10;;;1.52;;
83103;SDS011;72975;48.134;11.630;2023-11-18T14:54:20;4.88;;;2.28;;
83103;SDS011;72975;48.134;11.630;2023-11-18T14:56:47;6.25;;;2.38;;
83103;SDS011;72975;48.134;11.630;2023-11-18T14:59:15;3.65;;;2.17;;
83103;SDS011;72975;48.134;11.630;2023-11-18T15:01:42;6.82;;;4.03;;
83103;SDS011;72975;48.134;11.630;2023-11-18T15:04:10;4.30;;;2.90;;
83103;SDS011;72975;48.134;11.630;2023-11-18T15:06:38;3.65;;;2.55;;
83103;SDS011;72975;48.134;11.630;2023-11-18T15:09:07;4.20;;;2.53;;
83103;SDS011;72975;48.134;11.630;2023-11-18T15:11:37;4.00;;;2.10;;
83103;SDS011;72975;48.134;11.630;2023-11-18T15:14:04;3.33;;;1.95;;
83103;SDS011;72975;48.134;11.630;2023-11-18T15:16:33;2.70;;;1.38;;
83103;SDS011;72975;48.134;11.630;2023-11-18T15:19:00;3.80;;;2.53;;
83103;SDS011;72975;48.134;11.630;2023-11-18T15:21:27;4.53;;;2.50;;
83103;SDS011;72975;48.134;11.630;2023-11-18T15:23:56;3.47;;;2.35;;
83103;SDS011;72975;48.134;11.630;2023-11-18T15:28:57;4.40;;;2.53;;
83103;SDS011;72975;48.134;11.630;2023-11-18T15:31:25;5.05;;;2.42;;
83103;SDS011;72975;48.134;11.630;2023-11-18T15:33:55;5.43;;;2.92;;
83103;SDS011;72975;48.134;11.630;2023-11-18T15:36:23;4.18;;;2.80;;
83103;SDS011;72975;48.134;11.630;2023-11-18T15:38:51;4.78;;;3.10;;
83103;SDS011;72975;48.134;11.630;2023-11-18T15:41:18;4.65;;;2.55;;
83103;SDS011;72975;48.134;11.630;2023-11-18T15:43:46;4.07;;;2.30;;
83103;SDS011;72975;48.134;11.630;2023-11-18T15:46:14;5.00;;;2.90;;
83103;SDS011;72975;48.134;11.630;2023-11-18T15:48:41;4.53;;;2.65;;
83103;SDS011;72975;48.134;11.630;2023-11-18T15:51:08;5.00;;;2.25;;